sensor_id;sensor_type;location;lat;lon;timestamp;P1;durP1;ratioP1;P2;durP2;ratioP2
61093;SDS011;46976;52.942;6.810;2022-09-09T00:00:14;19.33;;;14.73;;
61093;SDS011;46976;52.942;6.810;2022-09-09T00:02:44;19.30;;;13.48;;
61093;SDS011;46976;52.942;6.810;2022-09-09T00:05:17;21.80;;;13.80;;
61093;SDS011;46976;52.942;6.810;2022-09-09T00:07:47;21.35;;;14.00;;
61093;SDS011;46976;52.942;6.810;2022-09-09T00:15:25;22.60;;;15.77;;
61093;SDS011;46976;52.942;6.810;2022-09-09T00:22:57;20.67;;;14.73;;
61093;SDS011;46976;52.942;6.810;2022-09-09T00:25:34;19.88;;;14.60;;
61093;SDS011;46976;52.942;6.810;2022-09-09T00:30:31;20.60;;;14.80;;
61093;SDS011;46976;52.942;6.810;2022-09-09T00:33:00;21.27;;;15.77;;
61093;SDS011;46976;52.942;6.810;2022-09-09T00:35:35;24.37;;;16.33;;
61093;SDS011;46976;52.942;6.810;2022-09-09T00:38:09;31.27;;;17.55;;
61093;SDS011;46976;52.942;6.810;2022-09-09T00:40:41;22.60;;;16.08;;
61093;SDS011;46976;52.942;6.810;2022-09-09T00:43:15;21.52;;;15.30;;
61093;SDS011;46976;52.942;6.810;2022-09-09T00:48:12;21.48;;;15.48;;
61093;SDS011;46976;52.942;6.810;2022-09-09T00:50:44;23.23;;;15.77;;
61093;SDS011;46976;52.942;6.810;2022-09-09T00:53:18;24.90;;;16.35;;
61093;SDS011;46976;52.942;6.810;2022-09-09T00:55:56;21.55;;;15.50;;
61093;SDS011;46976;52.942;6.810;2022-09-09T00:58:26;20.88;;;15.70;;
61093;SDS011;46976;52.942;6.810;2022-09-09T01:06:01;21.92;;;14.52;;
61093;SDS011;46976;52.942;6.810;2022-09-09T01:08:40;43.55;;;19.90;;
61093;SDS011;46976;52.942;6.810;2022-09-09T01:11:10;24.00;;;15.75;;
61093;SDS011;46976;52.942;6.810;2022-09-09T01:13:41;37.53;;;18.98;;
61093;SDS011;46976;52.942;6.810;2022-09-09T01:16:10;22.13;;;16.30;;
61093;SDS011;46976;52.942;6.810;2022-09-09T01:18:38;29.80;;;17.45;;
61093;SDS011;46976;52.942;6.810;2022-09-09T01:26:24;26.42;;;17.05;;
61093;SDS011;46976;52.942;6.810;2022-09-09T01:28:52;22.90;;;16.63;;
61093;SDS011;46976;52.942;6.810;2022-09-09T01:31:20;29.60;;;19.15;;
61093;SDS011;46976;52.942;6.810;2022-09-09T01:33:47;25.85;;;18.33;;
61093;SDS011;46976;52.942;6.810;2022-09-09T01:36:17;25.08;;;17.75;;
61093;SDS011;46976;52.942;6.810;2022-09-09T01:38:45;26.92;;;17.60;;
61093;SDS011;46976;52.942;6.810;2022-09-09T01:41:11;21.95;;;17.00;;
61093;SDS011;46976;52.942;6.810;2022-09-09T01:43:37;26.08;;;17.52;;
61093;SDS011;46976;52.942;6.810;2022-09-09T01:46:03;24.45;;;17.15;;
61093;SDS011;46976;52.942;6.810;2022-09-09T01:48:30;24.02;;;17.40;;
61093;SDS011;46976;52.942;6.810;2022-09-09T01:50:56;23.35;;;16.90;;
61093;SDS011;46976;52.942;6.810;2022-09-09T01:53:23;25.27;;;18.00;;
61093;SDS011;46976;52.942;6.810;2022-09-09T01:55:58;27.27;;;18.30;;
61093;SDS011;46976;52.942;6.810;2022-09-09T02:01:41;27.23;;;17.52;;
61093;SDS011;46976;52.942;6.810;2022-09-09T02:03:38;22.80;;;16.77;;
61093;SDS011;46976;52.942;6.810;2022-09-09T02:08:52;27.10;;;17.25;;
61093;SDS011;46976;52.942;6.810;2022-09-09T02:11:20;28.25;;;17.92;;
61093;SDS011;46976;52.942;6.810;2022-09-09T02:13:48;30.60;;;18.30;;
61093;SDS011;46976;52.942;6.810;2022-09-09T02:16:25;29.77;;;17.58;;
61093;SDS011;46976;52.942;6.810;2022-09-09T02:18:54;23.55;;;16.45;;
61093;SDS011;46976;52.942;6.810;2022-09-09T02:21:22;23.38;;;16.13;;
61093;SDS011;46976;52.942;6.810;2022-09-09T02:23:48;24.02;;;15.88;;
61093;SDS011;46976;52.942;6.810;2022-09-09T02:26:17;25.25;;;17.45;;
61093;SDS011;46976;52.942;6.810;2022-09-09T02:28:47;25.17;;;16.92;;
61093;SDS011;46976;52.942;6.810;2022-09-09T02:31:14;25.50;;;16.55;;
61093;SDS011;46976;52.942;6.810;2022-09-09T02:33:44;22.15;;;15.23;;
61093;SDS011;46976;52.942;6.810;2022-09-09T02:36:11;26.65;;;16.05;;
61093;SDS011;46976;52.942;6.810;2022-09-09T02:38:42;20.90;;;14.23;;
61093;SDS011;46976;52.942;6.810;2022-09-09T02:41:10;20.23;;;13.98;;
61093;SDS011;46976;52.942;6.810;2022-09-09T02:43:37;26.83;;;15.02;;
61093;SDS011;46976;52.942;6.810;2022-09-09T02:48:58;22.13;;;14.20;;
61093;SDS011;46976;52.942;6.810;2022-09-09T02:53:56;20.05;;;14.57;;
61093;SDS011;46976;52.942;6.810;2022-09-09T02:56:25;25.40;;;15.80;;
61093;SDS011;46976;52.942;6.810;2022-09-09T02:58:53;26.73;;;16.08;;
61093;SDS011;46976;52.942;6.810;2022-09-09T03:01:20;26.85;;;15.82;;
61093;SDS011;46976;52.942;6.810;2022-09-09T03:03:46;25.73;;;15.85;;
61093;SDS011;46976;52.942;6.810;2022-09-09T03:06:13;23.25;;;15.35;;
61093;SDS011;46976;52.942;6.810;2022-09-09T03:08:39;23.38;;;15.75;;
61093;SDS011;46976;52.942;6.810;2022-09-09T03:11:06;22.75;;;15.52;;
61093;SDS011;46976;52.942;6.810;2022-09-09T03:13:34;25.33;;;15.75;;
61093;SDS011;46976;52.942;6.810;2022-09-09T03:16:00;29.75;;;17.75;;
61093;SDS011;46976;52.942;6.810;2022-09-09T03:18:26;26.45;;;16.98;;
61093;SDS011;46976;52.942;6.810;2022-09-09T03:20:53;23.48;;;16.25;;
61093;SDS011;46976;52.942;6.810;2022-09-09T03:23:19;23.90;;;16.63;;
61093;SDS011;46976;52.942;6.810;2022-09-09T03:25:49;22.63;;;16.58;;
61093;SDS011;46976;52.942;6.810;2022-09-09T03:28:16;24.35;;;16.30;;
61093;SDS011;46976;52.942;6.810;2022-09-09T03:30:42;25.83;;;16.52;;
61093;SDS011;46976;52.942;6.810;2022-09-09T03:33:08;23.13;;;15.02;;
61093;SDS011;46976;52.942;6.810;2022-09-09T03:35:34;22.70;;;15.65;;
61093;SDS011;46976;52.942;6.810;2022-09-09T03:38:01;26.17;;;16.15;;
61093;SDS011;46976;52.942;6.810;2022-09-09T03:40:27;27.52;;;16.67;;
61093;SDS011;46976;52.942;6.810;2022-09-09T03:42:53;27.88;;;16.75;;
61093;SDS011;46976;52.942;6.810;2022-09-09T03:45:19;24.30;;;16.27;;
61093;SDS011;46976;52.942;6.810;2022-09-09T03:47:45;25.38;;;16.67;;
61093;SDS011;46976;52.942;6.810;2022-09-09T03:50:11;25.83;;;16.90;;
61093;SDS011;46976;52.942;6.810;2022-09-09T03:52:37;28.52;;;18.30;;
61093;SDS011;46976;52.942;6.810;2022-09-09T03:55:04;25.48;;;16.83;;
61093;SDS011;46976;52.942;6.810;2022-09-09T03:57:30;23.27;;;16.60;;
61093;SDS011;46976;52.942;6.810;2022-09-09T03:59:59;24.27;;;16.88;;
61093;SDS011;46976;52.942;6.810;2022-09-09T04:02:26;24.38;;;17.25;;
61093;SDS011;46976;52.942;6.810;2022-09-09T04:04:52;23.48;;;17.17;;
61093;SDS011;46976;52.942;6.810;2022-09-09T04:07:18;22.52;;;16.40;;
61093;SDS011;46976;52.942;6.810;2022-09-09T04:09:44;26.27;;;16.80;;
61093;SDS011;46976;52.942;6.810;2022-09-09T04:12:10;20.98;;;14.02;;
61093;SDS011;46976;52.942;6.810;2022-09-09T04:14:38;19.00;;;14.05;;
61093;SDS011;46976;52.942;6.810;2022-09-09T04:17:04;20.77;;;13.90;;
61093;SDS011;46976;52.942;6.810;2022-09-09T04:19:32;19.25;;;12.93;;
61093;SDS011;46976;52.942;6.810;2022-09-09T04:21:58;21.08;;;13.32;;
61093;SDS011;46976;52.942;6.810;2022-09-09T04:24:24;16.45;;;12.13;;
61093;SDS011;46976;52.942;6.810;2022-09-09T04:26:52;19.43;;;12.17;;
61093;SDS011;46976;52.942;6.810;2022-09-09T04:29:18;17.67;;;11.15;;
61093;SDS011;46976;52.942;6.810;2022-09-09T04:31:44;17.00;;;11.05;;
61093;SDS011;46976;52.942;6.810;2022-09-09T04:34:10;16.63;;;10.93;;
61093;SDS011;46976;52.942;6.810;2022-09-09T04:36:36;21.08;;;12.18;;
61093;SDS011;46976;52.942;6.810;2022-09-09T04:39:06;15.60;;;11.35;;
61093;SDS011;46976;52.942;6.810;2022-09-09T04:41:32;20.30;;;12.57;;
61093;SDS011;46976;52.942;6.810;2022-09-09T04:44:02;19.60;;;13.13;;
61093;SDS011;46976;52.942;6.810;2022-09-09T04:46:28;22.60;;;13.68;;
61093;SDS011;46976;52.942;6.810;2022-09-09T04:48:54;22.08;;;13.90;;
61093;SDS011;46976;52.942;6.810;2022-09-09T04:51:20;22.25;;;14.13;;
61093;SDS011;46976;52.942;6.810;2022-09-09T04:53:47;20.58;;;14.18;;
61093;SDS011;46976;52.942;6.810;2022-09-09T04:56:14;19.75;;;13.52;;
61093;SDS011;46976;52.942;6.810;2022-09-09T04:58:41;21.38;;;14.65;;
61093;SDS011;46976;52.942;6.810;2022-09-09T05:01:15;21.17;;;14.05;;
61093;SDS011;46976;52.942;6.810;2022-09-09T05:03:42;22.38;;;15.00;;
61093;SDS011;46976;52.942;6.810;2022-09-09T05:06:11;22.30;;;15.17;;
61093;SDS011;46976;52.942;6.810;2022-09-09T05:08:38;21.38;;;14.63;;
61093;SDS011;46976;52.942;6.810;2022-09-09T05:11:12;23.30;;;14.68;;
61093;SDS011;46976;52.942;6.810;2022-09-09T05:13:39;26.67;;;16.85;;
61093;SDS011;46976;52.942;6.810;2022-09-09T05:16:05;28.98;;;17.25;;
61093;SDS011;46976;52.942;6.810;2022-09-09T05:18:31;25.67;;;16.40;;
61093;SDS011;46976;52.942;6.810;2022-09-09T05:21:00;27.92;;;17.05;;
61093;SDS011;46976;52.942;6.810;2022-09-09T05:23:26;23.10;;;16.73;;
61093;SDS011;46976;52.942;6.810;2022-09-09T05:25:56;22.25;;;15.82;;
61093;SDS011;46976;52.942;6.810;2022-09-09T05:28:23;23.70;;;15.43;;
61093;SDS011;46976;52.942;6.810;2022-09-09T05:31:01;26.27;;;16.97;;
61093;SDS011;46976;52.942;6.810;2022-09-09T05:33:29;21.88;;;15.88;;
61093;SDS011;46976;52.942;6.810;2022-09-09T05:35:59;22.30;;;15.95;;
61093;SDS011;46976;52.942;6.810;2022-09-09T05:38:26;21.77;;;15.18;;
61093;SDS011;46976;52.942;6.810;2022-09-09T05:40:53;20.35;;;14.93;;
61093;SDS011;46976;52.942;6.810;2022-09-09T05:43:19;20.70;;;14.82;;
61093;SDS011;46976;52.942;6.810;2022-09-09T05:45:46;19.65;;;13.95;;
61093;SDS011;46976;52.942;6.810;2022-09-09T05:48:15;21.52;;;15.02;;
61093;SDS011;46976;52.942;6.810;2022-09-09T05:50:42;20.42;;;13.98;;
61093;SDS011;46976;52.942;6.810;2022-09-09T05:53:11;19.15;;;13.35;;
61093;SDS011;46976;52.942;6.810;2022-09-09T05:55:37;18.98;;;13.32;;
61093;SDS011;46976;52.942;6.810;2022-09-09T05:58:03;19.80;;;13.52;;
61093;SDS011;46976;52.942;6.810;2022-09-09T06:00:29;17.70;;;12.98;;
61093;SDS011;46976;52.942;6.810;2022-09-09T06:02:57;18.02;;;13.15;;
61093;SDS011;46976;52.942;6.810;2022-09-09T06:05:23;20.05;;;13.63;;
61093;SDS011;46976;52.942;6.810;2022-09-09T06:10:18;19.65;;;13.27;;
61093;SDS011;46976;52.942;6.810;2022-09-09T06:12:44;18.77;;;12.82;;
61093;SDS011;46976;52.942;6.810;2022-09-09T06:15:10;19.17;;;13.18;;
61093;SDS011;46976;52.942;6.810;2022-09-09T06:17:36;18.75;;;12.95;;
61093;SDS011;46976;52.942;6.810;2022-09-09T06:20:04;19.08;;;12.65;;
61093;SDS011;46976;52.942;6.810;2022-09-09T06:22:30;16.30;;;11.77;;
61093;SDS011;46976;52.942;6.810;2022-09-09T06:24:56;19.05;;;12.80;;
61093;SDS011;46976;52.942;6.810;2022-09-09T06:27:22;14.95;;;11.18;;
61093;SDS011;46976;52.942;6.810;2022-09-09T06:29:48;16.33;;;11.70;;
61093;SDS011;46976;52.942;6.810;2022-09-09T06:32:15;16.50;;;11.45;;
61093;SDS011;46976;52.942;6.810;2022-09-09T06:34:42;15.63;;;10.77;;
61093;SDS011;46976;52.942;6.810;2022-09-09T06:37:08;14.75;;;9.90;;
61093;SDS011;46976;52.942;6.810;2022-09-09T06:39:35;15.10;;;10.15;;
61093;SDS011;46976;52.942;6.810;2022-09-09T06:42:01;13.68;;;9.77;;
61093;SDS011;46976;52.942;6.810;2022-09-09T06:44:27;14.90;;;9.75;;
61093;SDS011;46976;52.942;6.810;2022-09-09T06:46:56;14.35;;;9.73;;
61093;SDS011;46976;52.942;6.810;2022-09-09T06:49:22;13.57;;;9.25;;
61093;SDS011;46976;52.942;6.810;2022-09-09T06:51:49;12.48;;;9.13;;
61093;SDS011;46976;52.942;6.810;2022-09-09T06:54:17;14.02;;;8.88;;
61093;SDS011;46976;52.942;6.810;2022-09-09T06:56:44;12.68;;;9.25;;
61093;SDS011;46976;52.942;6.810;2022-09-09T06:59:11;14.65;;;9.75;;
61093;SDS011;46976;52.942;6.810;2022-09-09T07:01:38;14.20;;;9.40;;
61093;SDS011;46976;52.942;6.810;2022-09-09T07:04:07;15.10;;;9.02;;
61093;SDS011;46976;52.942;6.810;2022-09-09T07:06:38;13.25;;;9.23;;
61093;SDS011;46976;52.942;6.810;2022-09-09T07:09:06;13.27;;;8.68;;
61093;SDS011;46976;52.942;6.810;2022-09-09T07:11:36;14.27;;;8.65;;
61093;SDS011;46976;52.942;6.810;2022-09-09T07:14:02;15.85;;;9.00;;
61093;SDS011;46976;52.942;6.810;2022-09-09T07:16:28;12.98;;;8.98;;
61093;SDS011;46976;52.942;6.810;2022-09-09T07:18:56;14.35;;;8.50;;
61093;SDS011;46976;52.942;6.810;2022-09-09T07:21:23;11.68;;;7.97;;
61093;SDS011;46976;52.942;6.810;2022-09-09T07:23:51;12.65;;;8.85;;
61093;SDS011;46976;52.942;6.810;2022-09-09T07:26:19;12.95;;;8.88;;
61093;SDS011;46976;52.942;6.810;2022-09-09T07:28:45;12.77;;;8.93;;
61093;SDS011;46976;52.942;6.810;2022-09-09T07:31:16;13.50;;;8.88;;
61093;SDS011;46976;52.942;6.810;2022-09-09T07:33:42;14.77;;;9.07;;
61093;SDS011;46976;52.942;6.810;2022-09-09T07:36:10;11.68;;;8.43;;
61093;SDS011;46976;52.942;6.810;2022-09-09T07:38:42;12.95;;;8.93;;
61093;SDS011;46976;52.942;6.810;2022-09-09T07:41:10;13.63;;;9.20;;
61093;SDS011;46976;52.942;6.810;2022-09-09T07:43:41;12.82;;;8.80;;
61093;SDS011;46976;52.942;6.810;2022-09-09T07:46:08;12.48;;;8.30;;
61093;SDS011;46976;52.942;6.810;2022-09-09T07:48:35;12.38;;;8.75;;
61093;SDS011;46976;52.942;6.810;2022-09-09T07:51:06;14.52;;;9.20;;
61093;SDS011;46976;52.942;6.810;2022-09-09T07:53:32;11.52;;;7.45;;
61093;SDS011;46976;52.942;6.810;2022-09-09T07:56:06;12.35;;;8.52;;
61093;SDS011;46976;52.942;6.810;2022-09-09T07:58:34;13.35;;;7.88;;
61093;SDS011;46976;52.942;6.810;2022-09-09T08:01:00;11.45;;;7.18;;
61093;SDS011;46976;52.942;6.810;2022-09-09T08:03:26;10.82;;;6.68;;
61093;SDS011;46976;52.942;6.810;2022-09-09T08:05:52;10.65;;;7.05;;
61093;SDS011;46976;52.942;6.810;2022-09-09T08:08:18;10.27;;;6.50;;
61093;SDS011;46976;52.942;6.810;2022-09-09T08:10:44;10.65;;;6.32;;
61093;SDS011;46976;52.942;6.810;2022-09-09T08:13:10;11.50;;;6.20;;
61093;SDS011;46976;52.942;6.810;2022-09-09T08:15:37;10.02;;;5.82;;
61093;SDS011;46976;52.942;6.810;2022-09-09T08:18:04;11.85;;;5.43;;
61093;SDS011;46976;52.942;6.810;2022-09-09T08:20:30;11.38;;;5.72;;
61093;SDS011;46976;52.942;6.810;2022-09-09T08:22:57;10.40;;;5.57;;
61093;SDS011;46976;52.942;6.810;2022-09-09T08:25:23;10.07;;;4.97;;
61093;SDS011;46976;52.942;6.810;2022-09-09T08:27:49;12.07;;;5.65;;
61093;SDS011;46976;52.942;6.810;2022-09-09T08:30:15;11.70;;;5.13;;
61093;SDS011;46976;52.942;6.810;2022-09-09T08:32:41;11.30;;;4.82;;
61093;SDS011;46976;52.942;6.810;2022-09-09T08:35:08;10.88;;;5.20;;
61093;SDS011;46976;52.942;6.810;2022-09-09T08:37:34;10.13;;;5.38;;
61093;SDS011;46976;52.942;6.810;2022-09-09T08:40:01;10.38;;;5.20;;
61093;SDS011;46976;52.942;6.810;2022-09-09T08:42:35;10.50;;;5.50;;
61093;SDS011;46976;52.942;6.810;2022-09-09T08:47:42;12.18;;;5.90;;
61093;SDS011;46976;52.942;6.810;2022-09-09T08:50:22;10.82;;;5.90;;
61093;SDS011;46976;52.942;6.810;2022-09-09T08:52:51;10.63;;;5.40;;
61093;SDS011;46976;52.942;6.810;2022-09-09T08:57:51;10.00;;;5.00;;
61093;SDS011;46976;52.942;6.810;2022-09-09T09:00:18;11.23;;;4.87;;
61093;SDS011;46976;52.942;6.810;2022-09-09T09:02:47;11.50;;;4.57;;
61093;SDS011;46976;52.942;6.810;2022-09-09T09:05:31;8.63;;;4.65;;
61093;SDS011;46976;52.942;6.810;2022-09-09T09:08:08;9.38;;;4.65;;
61093;SDS011;46976;52.942;6.810;2022-09-09T09:13:15;12.10;;;5.20;;
61093;SDS011;46976;52.942;6.810;2022-09-09T09:15:43;9.48;;;4.50;;
61093;SDS011;46976;52.942;6.810;2022-09-09T09:18:10;10.40;;;4.32;;
61093;SDS011;46976;52.942;6.810;2022-09-09T09:20:43;10.88;;;4.03;;
61093;SDS011;46976;52.942;6.810;2022-09-09T09:23:15;12.15;;;4.32;;
61093;SDS011;46976;52.942;6.810;2022-09-09T09:25:45;12.43;;;4.30;;
61093;SDS011;46976;52.942;6.810;2022-09-09T09:28:17;9.45;;;3.92;;
61093;SDS011;46976;52.942;6.810;2022-09-09T09:30:46;9.55;;;4.18;;
61093;SDS011;46976;52.942;6.810;2022-09-09T09:35:49;11.68;;;4.20;;
61093;SDS011;46976;52.942;6.810;2022-09-09T09:38:17;10.95;;;3.90;;
61093;SDS011;46976;52.942;6.810;2022-09-09T09:40:50;10.38;;;3.92;;
61093;SDS011;46976;52.942;6.810;2022-09-09T09:43:28;11.85;;;3.78;;
61093;SDS011;46976;52.942;6.810;2022-09-09T09:45:54;11.15;;;3.58;;
61093;SDS011;46976;52.942;6.810;2022-09-09T09:48:20;9.45;;;3.60;;
61093;SDS011;46976;52.942;6.810;2022-09-09T09:50:48;8.63;;;3.63;;
61093;SDS011;46976;52.942;6.810;2022-09-09T09:53:20;10.80;;;3.47;;
61093;SDS011;46976;52.942;6.810;2022-09-09T09:55:52;9.95;;;3.30;;
61093;SDS011;46976;52.942;6.810;2022-09-09T09:58:19;10.73;;;3.50;;
61093;SDS011;46976;52.942;6.810;2022-09-09T10:00:49;10.93;;;3.05;;
61093;SDS011;46976;52.942;6.810;2022-09-09T10:03:20;10.45;;;3.30;;
61093;SDS011;46976;52.942;6.810;2022-09-09T10:05:47;9.20;;;3.20;;
61093;SDS011;46976;52.942;6.810;2022-09-09T10:08:14;12.75;;;3.30;;
61093;SDS011;46976;52.942;6.810;2022-09-09T10:13:33;10.73;;;2.97;;
61093;SDS011;46976;52.942;6.810;2022-09-09T10:31:48;9.25;;;2.85;;
61093;SDS011;46976;52.942;6.810;2022-09-09T10:36:47;11.25;;;2.80;;
61093;SDS011;46976;52.942;6.810;2022-09-09T10:42:00;9.43;;;2.70;;
61093;SDS011;46976;52.942;6.810;2022-09-09T10:54:53;8.98;;;2.00;;
61093;SDS011;46976;52.942;6.810;2022-09-09T10:57:31;10.63;;;2.50;;
61093;SDS011;46976;52.942;6.810;2022-09-09T11:00:03;7.63;;;1.92;;
61093;SDS011;46976;52.942;6.810;2022-09-09T11:02:31;7.13;;;2.05;;
61093;SDS011;46976;52.942;6.810;2022-09-09T11:05:02;8.23;;;2.42;;
61093;SDS011;46976;52.942;6.810;2022-09-09T11:07:42;10.50;;;2.28;;
61093;SDS011;46976;52.942;6.810;2022-09-09T11:12:56;9.73;;;2.13;;
61093;SDS011;46976;52.942;6.810;2022-09-09T11:15:29;8.88;;;2.20;;
61093;SDS011;46976;52.942;6.810;2022-09-09T11:17:58;8.23;;;2.05;;
61093;SDS011;46976;52.942;6.810;2022-09-09T11:20:25;8.45;;;1.98;;
61093;SDS011;46976;52.942;6.810;2022-09-09T11:23:02;6.40;;;1.83;;
61093;SDS011;46976;52.942;6.810;2022-09-09T11:25:32;9.55;;;2.03;;
61093;SDS011;46976;52.942;6.810;2022-09-09T11:31:04;8.27;;;2.00;;
61093;SDS011;46976;52.942;6.810;2022-09-09T11:38:40;6.13;;;1.45;;
61093;SDS011;46976;52.942;6.810;2022-09-09T11:41:08;7.55;;;1.85;;
61093;SDS011;46976;52.942;6.810;2022-09-09T11:46:10;7.80;;;1.70;;
61093;SDS011;46976;52.942;6.810;2022-09-09T11:48:44;7.15;;;1.40;;
61093;SDS011;46976;52.942;6.810;2022-09-09T11:56:23;7.90;;;1.92;;
61093;SDS011;46976;52.942;6.810;2022-09-09T11:59:17;8.45;;;1.80;;
61093;SDS011;46976;52.942;6.810;2022-09-09T12:01:46;7.40;;;1.67;;
61093;SDS011;46976;52.942;6.810;2022-09-09T12:04:17;7.00;;;1.60;;
61093;SDS011;46976;52.942;6.810;2022-09-09T12:06:48;6.13;;;1.55;;
61093;SDS011;46976;52.942;6.810;2022-09-09T12:09:18;7.15;;;1.70;;
61093;SDS011;46976;52.942;6.810;2022-09-09T12:11:45;6.95;;;1.63;;
61093;SDS011;46976;52.942;6.810;2022-09-09T12:16:56;8.95;;;1.80;;
61093;SDS011;46976;52.942;6.810;2022-09-09T12:19:22;8.20;;;1.80;;
61093;SDS011;46976;52.942;6.810;2022-09-09T12:21:51;6.55;;;1.75;;
61093;SDS011;46976;52.942;6.810;2022-09-09T12:24:35;6.28;;;1.60;;
61093;SDS011;46976;52.942;6.810;2022-09-09T12:32:13;6.65;;;1.40;;
61093;SDS011;46976;52.942;6.810;2022-09-09T12:37:21;7.38;;;1.45;;
61093;SDS011;46976;52.942;6.810;2022-09-09T12:39:56;5.95;;;1.40;;
61093;SDS011;46976;52.942;6.810;2022-09-09T12:42:24;6.13;;;1.52;;
61093;SDS011;46976;52.942;6.810;2022-09-09T12:44:57;7.22;;;1.70;;
61093;SDS011;46976;52.942;6.810;2022-09-09T12:47:25;14.38;;;2.00;;
61093;SDS011;46976;52.942;6.810;2022-09-09T12:49:53;6.85;;;1.42;;
61093;SDS011;46976;52.942;6.810;2022-09-09T12:54:47;7.63;;;1.55;;
61093;SDS011;46976;52.942;6.810;2022-09-09T12:57:15;6.95;;;1.30;;
61093;SDS011;46976;52.942;6.810;2022-09-09T12:59:42;7.20;;;1.40;;
61093;SDS011;46976;52.942;6.810;2022-09-09T13:02:21;6.28;;;1.35;;
61093;SDS011;46976;52.942;6.810;2022-09-09T13:04:48;6.43;;;1.40;;
61093;SDS011;46976;52.942;6.810;2022-09-09T13:07:15;8.52;;;1.45;;
61093;SDS011;46976;52.942;6.810;2022-09-09T13:09:41;8.15;;;1.73;;
61093;SDS011;46976;52.942;6.810;2022-09-09T13:12:11;5.68;;;1.35;;
61093;SDS011;46976;52.942;6.810;2022-09-09T13:14:39;6.85;;;1.70;;
61093;SDS011;46976;52.942;6.810;2022-09-09T13:17:17;8.65;;;1.58;;
61093;SDS011;46976;52.942;6.810;2022-09-09T13:19:44;5.70;;;1.25;;
61093;SDS011;46976;52.942;6.810;2022-09-09T13:22:19;9.03;;;1.90;;
61093;SDS011;46976;52.942;6.810;2022-09-09T13:24:46;5.90;;;1.40;;
61093;SDS011;46976;52.942;6.810;2022-09-09T13:27:51;6.28;;;1.50;;
61093;SDS011;46976;52.942;6.810;2022-09-09T13:32:47;6.32;;;1.30;;
61093;SDS011;46976;52.942;6.810;2022-09-09T13:35:22;7.82;;;1.65;;
61093;SDS011;46976;52.942;6.810;2022-09-09T13:37:48;6.35;;;1.40;;
61093;SDS011;46976;52.942;6.810;2022-09-09T13:40:18;5.53;;;1.48;;
61093;SDS011;46976;52.942;6.810;2022-09-09T13:42:46;7.30;;;1.60;;
61093;SDS011;46976;52.942;6.810;2022-09-09T13:45:20;5.50;;;1.38;;
61093;SDS011;46976;52.942;6.810;2022-09-09T13:47:47;6.25;;;1.60;;
61093;SDS011;46976;52.942;6.810;2022-09-09T13:50:21;6.90;;;1.60;;
61093;SDS011;46976;52.942;6.810;2022-09-09T13:52:48;7.85;;;1.60;;
61093;SDS011;46976;52.942;6.810;2022-09-09T13:55:16;5.35;;;1.40;;
61093;SDS011;46976;52.942;6.810;2022-09-09T13:57:56;6.70;;;1.67;;
61093;SDS011;46976;52.942;6.810;2022-09-09T14:00:22;5.72;;;1.38;;
61093;SDS011;46976;52.942;6.810;2022-09-09T14:02:51;6.60;;;1.52;;
61093;SDS011;46976;52.942;6.810;2022-09-09T14:05:19;8.02;;;2.03;;
61093;SDS011;46976;52.942;6.810;2022-09-09T14:07:47;8.30;;;1.85;;
61093;SDS011;46976;52.942;6.810;2022-09-09T14:10:13;8.55;;;2.08;;
61093;SDS011;46976;52.942;6.810;2022-09-09T14:12:39;7.70;;;1.83;;
61093;SDS011;46976;52.942;6.810;2022-09-09T14:15:06;6.30;;;1.50;;
61093;SDS011;46976;52.942;6.810;2022-09-09T14:17:32;6.57;;;1.60;;
61093;SDS011;46976;52.942;6.810;2022-09-09T14:22:27;9.82;;;1.98;;
61093;SDS011;46976;52.942;6.810;2022-09-09T14:24:53;7.10;;;1.73;;
61093;SDS011;46976;52.942;6.810;2022-09-09T14:27:19;6.38;;;1.63;;
61093;SDS011;46976;52.942;6.810;2022-09-09T14:29:45;7.85;;;1.60;;
61093;SDS011;46976;52.942;6.810;2022-09-09T14:32:11;6.90;;;1.38;;
61093;SDS011;46976;52.942;6.810;2022-09-09T14:34:37;5.10;;;1.20;;
61093;SDS011;46976;52.942;6.810;2022-09-09T14:37:03;7.28;;;1.48;;
61093;SDS011;46976;52.942;6.810;2022-09-09T14:39:30;4.75;;;1.10;;
61093;SDS011;46976;52.942;6.810;2022-09-09T14:41:56;8.27;;;1.50;;
61093;SDS011;46976;52.942;6.810;2022-09-09T14:44:22;6.20;;;1.50;;
61093;SDS011;46976;52.942;6.810;2022-09-09T14:46:48;4.95;;;1.52;;
61093;SDS011;46976;52.942;6.810;2022-09-09T14:49:15;6.40;;;1.35;;
61093;SDS011;46976;52.942;6.810;2022-09-09T14:51:41;5.85;;;1.60;;
61093;SDS011;46976;52.942;6.810;2022-09-09T14:54:07;4.68;;;1.30;;
61093;SDS011;46976;52.942;6.810;2022-09-09T14:56:33;5.35;;;1.40;;
61093;SDS011;46976;52.942;6.810;2022-09-09T14:59:00;5.15;;;1.15;;
61093;SDS011;46976;52.942;6.810;2022-09-09T15:01:27;5.43;;;1.42;;
61093;SDS011;46976;52.942;6.810;2022-09-09T15:03:55;4.00;;;1.10;;
61093;SDS011;46976;52.942;6.810;2022-09-09T15:06:23;4.97;;;1.17;;
61093;SDS011;46976;52.942;6.810;2022-09-09T15:08:50;6.38;;;1.30;;
61093;SDS011;46976;52.942;6.810;2022-09-09T15:11:17;3.70;;;1.10;;
61093;SDS011;46976;52.942;6.810;2022-09-09T15:13:43;4.22;;;1.25;;
61093;SDS011;46976;52.942;6.810;2022-09-09T15:16:11;4.72;;;1.10;;
61093;SDS011;46976;52.942;6.810;2022-09-09T15:18:37;3.93;;;1.20;;
61093;SDS011;46976;52.942;6.810;2022-09-09T15:21:11;3.33;;;1.20;;
61093;SDS011;46976;52.942;6.810;2022-09-09T15:23:38;3.38;;;1.30;;
61093;SDS011;46976;52.942;6.810;2022-09-09T15:26:04;4.38;;;1.30;;
61093;SDS011;46976;52.942;6.810;2022-09-09T15:28:31;3.97;;;1.30;;
61093;SDS011;46976;52.942;6.810;2022-09-09T15:31:02;4.95;;;1.50;;
61093;SDS011;46976;52.942;6.810;2022-09-09T15:33:31;3.40;;;1.30;;
61093;SDS011;46976;52.942;6.810;2022-09-09T15:35:57;5.32;;;1.85;;
61093;SDS011;46976;52.942;6.810;2022-09-09T15:38:23;5.47;;;1.55;;
61093;SDS011;46976;52.942;6.810;2022-09-09T15:40:53;5.82;;;1.70;;
61093;SDS011;46976;52.942;6.810;2022-09-09T15:43:20;5.57;;;1.80;;
61093;SDS011;46976;52.942;6.810;2022-09-09T15:45:48;4.88;;;1.80;;
61093;SDS011;46976;52.942;6.810;2022-09-09T15:48:17;6.63;;;1.80;;
61093;SDS011;46976;52.942;6.810;2022-09-09T15:50:43;4.40;;;1.58;;
61093;SDS011;46976;52.942;6.810;2022-09-09T15:53:09;6.72;;;1.80;;
61093;SDS011;46976;52.942;6.810;2022-09-09T15:55:36;5.60;;;1.80;;
61093;SDS011;46976;52.942;6.810;2022-09-09T15:58:02;4.50;;;1.80;;
61093;SDS011;46976;52.942;6.810;2022-09-09T16:00:28;4.85;;;1.60;;
61093;SDS011;46976;52.942;6.810;2022-09-09T16:02:54;6.28;;;1.77;;
61093;SDS011;46976;52.942;6.810;2022-09-09T16:05:20;5.57;;;1.83;;
61093;SDS011;46976;52.942;6.810;2022-09-09T16:07:47;5.75;;;1.95;;
61093;SDS011;46976;52.942;6.810;2022-09-09T16:10:13;6.25;;;1.95;;
61093;SDS011;46976;52.942;6.810;2022-09-09T16:12:39;7.10;;;2.20;;
61093;SDS011;46976;52.942;6.810;2022-09-09T16:15:05;5.45;;;1.90;;
61093;SDS011;46976;52.942;6.810;2022-09-09T16:17:32;6.05;;;1.90;;
61093;SDS011;46976;52.942;6.810;2022-09-09T16:20:02;5.25;;;1.88;;
61093;SDS011;46976;52.942;6.810;2022-09-09T16:22:31;7.28;;;1.98;;
61093;SDS011;46976;52.942;6.810;2022-09-09T16:24:57;5.25;;;2.00;;
61093;SDS011;46976;52.942;6.810;2022-09-09T16:27:23;7.15;;;2.33;;
61093;SDS011;46976;52.942;6.810;2022-09-09T16:29:49;5.20;;;1.95;;
61093;SDS011;46976;52.942;6.810;2022-09-09T16:32:16;7.15;;;2.05;;
61093;SDS011;46976;52.942;6.810;2022-09-09T16:34:42;7.75;;;2.20;;
61093;SDS011;46976;52.942;6.810;2022-09-09T16:37:08;5.78;;;2.10;;
61093;SDS011;46976;52.942;6.810;2022-09-09T16:39:36;5.25;;;1.98;;